Portada
METAR-TAF:

METAR-TAF

Aeroports :

Abadeh, Iran

latitud: 31-11N, longitud: 052-40E, altitud: 2004 m

Observació

L'informe es va fer fa 45 minuts, a les 22:00 UTC
Vent 2 kt amb direcció variable
Temperatura 26°C
Humitat 9%
Pressió 1018 hPa

METAR: OISA 192200Z AUTO VRB02KT //// // ////// 26/M09 Q1018

Hora: 03:15 (22:45 UTC)


TAF: manca

Observacions i pronòstics meteorològics de més de 4000 aeroports (METAR i TAF).

Les estacions disponibles són els punts grocs i vermells al mapa.

Posi el ratolí al punt desitjat per veure el nom de l'estació.

Feu clic per veure les observacions i els pronòstics meteorològics.

Per canviar el mapa: feu clic els botons verds amb una creu de color negre per apropar; al botó verd amb un guió per allunyar la imatge; o en les fletxes verdes per a mapes adjacents.


METAR-TAF: